sensor_id;sensor_type;location;lat;lon;timestamp;P1;durP1;ratioP1;P2;durP2;ratioP2
54745;SDS011;40640;48.130;11.356;2023-09-07T00:01:40;7.13;;;5.10;;
54745;SDS011;40640;48.130;11.356;2023-09-07T00:05:43;5.80;;;4.18;;
54745;SDS011;40640;48.130;11.356;2023-09-07T00:09:47;8.10;;;4.85;;
54745;SDS011;40640;48.130;11.356;2023-09-07T00:13:51;9.48;;;4.57;;
54745;SDS011;40640;48.130;11.356;2023-09-07T00:17:54;8.90;;;4.10;;
54745;SDS011;40640;48.130;11.356;2023-09-07T00:21:58;5.63;;;4.28;;
54745;SDS011;40640;48.130;11.356;2023-09-07T00:26:01;8.65;;;4.28;;
54745;SDS011;40640;48.130;11.356;2023-09-07T00:30:05;7.63;;;4.85;;
54745;SDS011;40640;48.130;11.356;2023-09-07T00:34:10;8.07;;;4.45;;
54745;SDS011;40640;48.130;11.356;2023-09-07T00:38:13;6.95;;;4.38;;
54745;SDS011;40640;48.130;11.356;2023-09-07T00:42:16;9.00;;;4.60;;
54745;SDS011;40640;48.130;11.356;2023-09-07T00:46:20;6.18;;;4.60;;
54745;SDS011;40640;48.130;11.356;2023-09-07T00:50:24;5.78;;;4.35;;
54745;SDS011;40640;48.130;11.356;2023-09-07T00:54:27;7.97;;;4.68;;
54745;SDS011;40640;48.130;11.356;2023-09-07T00:58:31;6.35;;;4.50;;
54745;SDS011;40640;48.130;11.356;2023-09-07T01:02:36;6.78;;;4.20;;
54745;SDS011;40640;48.130;11.356;2023-09-07T01:06:40;7.85;;;4.60;;
54745;SDS011;40640;48.130;11.356;2023-09-07T01:10:48;7.95;;;4.35;;
54745;SDS011;40640;48.130;11.356;2023-09-07T01:14:51;8.52;;;4.53;;
54745;SDS011;40640;48.130;11.356;2023-09-07T01:18:56;6.60;;;4.28;;
54745;SDS011;40640;48.130;11.356;2023-09-07T01:23:00;6.68;;;4.35;;
54745;SDS011;40640;48.130;11.356;2023-09-07T01:27:04;9.97;;;4.60;;
54745;SDS011;40640;48.130;11.356;2023-09-07T01:31:08;4.60;;;4.15;;
54745;SDS011;40640;48.130;11.356;2023-09-07T01:35:11;9.40;;;4.70;;
54745;SDS011;40640;48.130;11.356;2023-09-07T01:39:19;5.72;;;4.20;;
54745;SDS011;40640;48.130;11.356;2023-09-07T01:43:23;7.35;;;4.63;;
54745;SDS011;40640;48.130;11.356;2023-09-07T01:47:26;6.70;;;4.78;;
54745;SDS011;40640;48.130;11.356;2023-09-07T01:51:29;12.02;;;4.43;;
54745;SDS011;40640;48.130;11.356;2023-09-07T01:55:33;9.05;;;4.65;;
54745;SDS011;40640;48.130;11.356;2023-09-07T01:59:36;8.30;;;4.60;;
54745;SDS011;40640;48.130;11.356;2023-09-07T02:03:39;5.93;;;4.55;;
54745;SDS011;40640;48.130;11.356;2023-09-07T02:07:42;10.88;;;4.88;;
54745;SDS011;40640;48.130;11.356;2023-09-07T02:11:47;7.55;;;4.55;;
54745;SDS011;40640;48.130;11.356;2023-09-07T02:15:50;7.18;;;4.80;;
54745;SDS011;40640;48.130;11.356;2023-09-07T02:19:53;9.55;;;4.97;;
54745;SDS011;40640;48.130;11.356;2023-09-07T02:23:55;6.10;;;4.57;;
54745;SDS011;40640;48.130;11.356;2023-09-07T02:28:00;6.70;;;4.57;;
54745;SDS011;40640;48.130;11.356;2023-09-07T02:32:03;6.63;;;4.03;;
54745;SDS011;40640;48.130;11.356;2023-09-07T02:36:07;7.07;;;4.35;;
54745;SDS011;40640;48.130;11.356;2023-09-07T02:40:10;8.60;;;4.70;;
54745;SDS011;40640;48.130;11.356;2023-09-07T02:44:15;8.60;;;4.78;;
54745;SDS011;40640;48.130;11.356;2023-09-07T02:48:18;8.85;;;4.43;;
54745;SDS011;40640;48.130;11.356;2023-09-07T02:52:21;7.65;;;4.60;;
54745;SDS011;40640;48.130;11.356;2023-09-07T02:56:25;8.80;;;4.75;;
54745;SDS011;40640;48.130;11.356;2023-09-07T03:00:29;6.35;;;4.80;;
54745;SDS011;40640;48.130;11.356;2023-09-07T03:04:34;8.73;;;4.47;;
54745;SDS011;40640;48.130;11.356;2023-09-07T03:08:37;8.85;;;4.45;;
54745;SDS011;40640;48.130;11.356;2023-09-07T03:12:41;8.65;;;4.53;;
54745;SDS011;40640;48.130;11.356;2023-09-07T03:16:45;6.90;;;3.85;;
54745;SDS011;40640;48.130;11.356;2023-09-07T03:20:53;5.05;;;4.18;;
54745;SDS011;40640;48.130;11.356;2023-09-07T03:25:00;6.95;;;4.20;;
54745;SDS011;40640;48.130;11.356;2023-09-07T03:29:04;11.13;;;5.18;;
54745;SDS011;40640;48.130;11.356;2023-09-07T03:33:08;8.93;;;4.45;;
54745;SDS011;40640;48.130;11.356;2023-09-07T03:37:11;7.35;;;5.05;;
54745;SDS011;40640;48.130;11.356;2023-09-07T03:41:14;7.07;;;4.68;;
54745;SDS011;40640;48.130;11.356;2023-09-07T03:45:17;7.40;;;4.43;;
54745;SDS011;40640;48.130;11.356;2023-09-07T03:49:21;14.20;;;4.50;;
54745;SDS011;40640;48.130;11.356;2023-09-07T03:53:25;8.30;;;4.88;;
54745;SDS011;40640;48.130;11.356;2023-09-07T03:57:28;12.07;;;4.90;;
54745;SDS011;40640;48.130;11.356;2023-09-07T04:01:31;7.45;;;4.95;;
54745;SDS011;40640;48.130;11.356;2023-09-07T04:05:37;8.73;;;5.25;;
54745;SDS011;40640;48.130;11.356;2023-09-07T04:09:41;13.20;;;5.57;;
54745;SDS011;40640;48.130;11.356;2023-09-07T04:13:45;7.03;;;4.88;;
54745;SDS011;40640;48.130;11.356;2023-09-07T04:17:49;16.45;;;5.80;;
54745;SDS011;40640;48.130;11.356;2023-09-07T04:21:53;7.72;;;5.38;;
54745;SDS011;40640;48.130;11.356;2023-09-07T04:26:03;9.10;;;5.57;;
54745;SDS011;40640;48.130;11.356;2023-09-07T04:30:07;8.77;;;5.88;;
54745;SDS011;40640;48.130;11.356;2023-09-07T04:34:11;8.13;;;5.88;;
54745;SDS011;40640;48.130;11.356;2023-09-07T04:38:16;8.90;;;5.70;;
54745;SDS011;40640;48.130;11.356;2023-09-07T04:42:19;10.90;;;5.55;;
54745;SDS011;40640;48.130;11.356;2023-09-07T04:46:22;13.40;;;6.15;;
54745;SDS011;40640;48.130;11.356;2023-09-07T04:50:26;11.30;;;6.15;;
54745;SDS011;40640;48.130;11.356;2023-09-07T04:54:30;12.52;;;6.05;;
54745;SDS011;40640;48.130;11.356;2023-09-07T04:58:33;10.95;;;6.40;;
54745;SDS011;40640;48.130;11.356;2023-09-07T05:02:36;14.55;;;6.13;;
54745;SDS011;40640;48.130;11.356;2023-09-07T05:06:43;15.43;;;6.55;;
54745;SDS011;40640;48.130;11.356;2023-09-07T05:10:48;9.52;;;5.68;;
54745;SDS011;40640;48.130;11.356;2023-09-07T05:14:52;9.68;;;5.53;;
54745;SDS011;40640;48.130;11.356;2023-09-07T05:18:55;6.57;;;5.00;;
54745;SDS011;40640;48.130;11.356;2023-09-07T05:22:58;10.48;;;5.47;;
54745;SDS011;40640;48.130;11.356;2023-09-07T05:27:04;9.77;;;5.82;;
54745;SDS011;40640;48.130;11.356;2023-09-07T05:31:07;13.10;;;6.35;;
54745;SDS011;40640;48.130;11.356;2023-09-07T05:35:11;10.23;;;5.72;;
54745;SDS011;40640;48.130;11.356;2023-09-07T05:39:17;8.38;;;5.72;;
54745;SDS011;40640;48.130;11.356;2023-09-07T05:43:22;13.90;;;6.05;;
54745;SDS011;40640;48.130;11.356;2023-09-07T05:47:25;8.48;;;5.90;;
54745;SDS011;40640;48.130;11.356;2023-09-07T05:51:28;7.93;;;5.57;;
54745;SDS011;40640;48.130;11.356;2023-09-07T05:55:31;7.65;;;5.80;;
54745;SDS011;40640;48.130;11.356;2023-09-07T05:59:37;10.23;;;5.50;;
54745;SDS011;40640;48.130;11.356;2023-09-07T06:03:40;6.88;;;4.75;;
54745;SDS011;40640;48.130;11.356;2023-09-07T06:07:43;9.50;;;6.57;;
54745;SDS011;40640;48.130;11.356;2023-09-07T06:11:48;9.43;;;5.85;;
54745;SDS011;40640;48.130;11.356;2023-09-07T06:15:53;8.88;;;5.25;;
54745;SDS011;40640;48.130;11.356;2023-09-07T06:19:56;11.88;;;5.30;;
54745;SDS011;40640;48.130;11.356;2023-09-07T06:24:00;11.27;;;6.65;;
54745;SDS011;40640;48.130;11.356;2023-09-07T06:28:03;12.02;;;5.57;;
54745;SDS011;40640;48.130;11.356;2023-09-07T06:32:08;8.07;;;5.90;;
54745;SDS011;40640;48.130;11.356;2023-09-07T06:36:11;10.18;;;5.60;;
54745;SDS011;40640;48.130;11.356;2023-09-07T06:40:15;8.10;;;5.53;;
54745;SDS011;40640;48.130;11.356;2023-09-07T06:44:22;8.90;;;4.78;;
54745;SDS011;40640;48.130;11.356;2023-09-07T06:48:27;8.05;;;4.90;;
54745;SDS011;40640;48.130;11.356;2023-09-07T06:52:30;12.77;;;5.47;;
54745;SDS011;40640;48.130;11.356;2023-09-07T06:56:33;14.70;;;5.00;;
54745;SDS011;40640;48.130;11.356;2023-09-07T07:00:37;5.27;;;4.53;;
54745;SDS011;40640;48.130;11.356;2023-09-07T07:04:41;5.63;;;4.07;;
54745;SDS011;40640;48.130;11.356;2023-09-07T07:08:46;6.18;;;4.55;;
54745;SDS011;40640;48.130;11.356;2023-09-07T07:12:49;7.28;;;4.07;;
54745;SDS011;40640;48.130;11.356;2023-09-07T07:20:56;9.00;;;4.78;;
54745;SDS011;40640;48.130;11.356;2023-09-07T07:24:59;6.28;;;4.50;;
54745;SDS011;40640;48.130;11.356;2023-09-07T07:29:07;11.27;;;4.40;;
54745;SDS011;40640;48.130;11.356;2023-09-07T07:33:11;15.68;;;5.18;;
54745;SDS011;40640;48.130;11.356;2023-09-07T07:37:16;9.60;;;5.10;;
54745;SDS011;40640;48.130;11.356;2023-09-07T07:41:19;11.23;;;5.03;;
54745;SDS011;40640;48.130;11.356;2023-09-07T07:45:22;11.32;;;5.60;;
54745;SDS011;40640;48.130;11.356;2023-09-07T07:49:26;5.85;;;5.10;;
54745;SDS011;40640;48.130;11.356;2023-09-07T07:53:30;8.40;;;5.68;;
54745;SDS011;40640;48.130;11.356;2023-09-07T07:57:35;9.00;;;5.97;;
54745;SDS011;40640;48.130;11.356;2023-09-07T08:01:38;11.07;;;6.38;;
54745;SDS011;40640;48.130;11.356;2023-09-07T08:05:42;9.20;;;7.03;;
54745;SDS011;40640;48.130;11.356;2023-09-07T08:09:47;12.70;;;8.98;;
54745;SDS011;40640;48.130;11.356;2023-09-07T08:13:52;12.15;;;10.50;;
54745;SDS011;40640;48.130;11.356;2023-09-07T08:17:56;14.50;;;13.10;;
54745;SDS011;40640;48.130;11.356;2023-09-07T08:21:59;18.30;;;16.73;;
54745;SDS011;40640;48.130;11.356;2023-09-07T08:26:06;21.35;;;19.45;;
54745;SDS011;40640;48.130;11.356;2023-09-07T08:30:13;20.65;;;18.98;;
54745;SDS011;40640;48.130;11.356;2023-09-07T08:34:18;17.83;;;16.63;;
54745;SDS011;40640;48.130;11.356;2023-09-07T08:38:22;17.27;;;15.93;;
54745;SDS011;40640;48.130;11.356;2023-09-07T08:42:31;18.67;;;17.27;;
54745;SDS011;40640;48.130;11.356;2023-09-07T08:46:34;15.77;;;14.32;;
54745;SDS011;40640;48.130;11.356;2023-09-07T08:50:37;15.57;;;14.27;;
54745;SDS011;40640;48.130;11.356;2023-09-07T08:54:42;15.02;;;13.63;;
54745;SDS011;40640;48.130;11.356;2023-09-07T08:58:47;13.35;;;12.07;;
54745;SDS011;40640;48.130;11.356;2023-09-07T09:02:50;12.23;;;11.32;;
54745;SDS011;40640;48.130;11.356;2023-09-07T09:06:57;14.18;;;13.13;;
54745;SDS011;40640;48.130;11.356;2023-09-07T09:11:03;16.88;;;15.20;;
54745;SDS011;40640;48.130;11.356;2023-09-07T09:15:08;17.25;;;15.77;;
54745;SDS011;40640;48.130;11.356;2023-09-07T09:19:12;15.10;;;13.70;;
54745;SDS011;40640;48.130;11.356;2023-09-07T09:23:15;14.57;;;13.25;;
54745;SDS011;40640;48.130;11.356;2023-09-07T09:27:18;16.48;;;14.88;;
54745;SDS011;40640;48.130;11.356;2023-09-07T09:31:23;14.90;;;11.23;;
54745;SDS011;40640;48.130;11.356;2023-09-07T09:35:26;11.82;;;10.70;;
54745;SDS011;40640;48.130;11.356;2023-09-07T09:39:31;12.70;;;11.52;;
54745;SDS011;40640;48.130;11.356;2023-09-07T09:43:34;13.07;;;12.07;;
54745;SDS011;40640;48.130;11.356;2023-09-07T09:47:39;13.00;;;11.88;;
54745;SDS011;40640;48.130;11.356;2023-09-07T09:51:44;14.63;;;13.35;;
54745;SDS011;40640;48.130;11.356;2023-09-07T09:55:48;14.13;;;12.73;;
54745;SDS011;40640;48.130;11.356;2023-09-07T09:59:53;12.23;;;10.30;;
54745;SDS011;40640;48.130;11.356;2023-09-07T10:03:58;8.20;;;7.57;;
54745;SDS011;40640;48.130;11.356;2023-09-07T10:08:03;6.68;;;5.25;;
54745;SDS011;40640;48.130;11.356;2023-09-07T10:12:11;5.38;;;4.43;;
54745;SDS011;40640;48.130;11.356;2023-09-07T10:16:18;8.43;;;4.53;;
54745;SDS011;40640;48.130;11.356;2023-09-07T10:20:22;7.75;;;4.32;;
54745;SDS011;40640;48.130;11.356;2023-09-07T10:24:26;8.82;;;4.80;;
54745;SDS011;40640;48.130;11.356;2023-09-07T10:28:30;5.45;;;4.25;;
54745;SDS011;40640;48.130;11.356;2023-09-07T10:32:37;10.77;;;5.38;;
54745;SDS011;40640;48.130;11.356;2023-09-07T10:36:43;11.52;;;4.72;;
54745;SDS011;40640;48.130;11.356;2023-09-07T10:40:47;5.67;;;4.40;;
54745;SDS011;40640;48.130;11.356;2023-09-07T10:44:50;6.55;;;4.80;;
54745;SDS011;40640;48.130;11.356;2023-09-07T10:48:53;6.90;;;5.00;;
54745;SDS011;40640;48.130;11.356;2023-09-07T10:52:59;7.90;;;4.60;;
54745;SDS011;40640;48.130;11.356;2023-09-07T10:57:07;7.10;;;4.67;;
54745;SDS011;40640;48.130;11.356;2023-09-07T11:01:10;10.75;;;4.88;;
54745;SDS011;40640;48.130;11.356;2023-09-07T11:05:17;14.60;;;4.63;;
54745;SDS011;40640;48.130;11.356;2023-09-07T11:09:22;8.25;;;4.40;;
54745;SDS011;40640;48.130;11.356;2023-09-07T11:13:26;6.03;;;4.88;;
54745;SDS011;40640;48.130;11.356;2023-09-07T11:17:29;6.75;;;5.45;;
54745;SDS011;40640;48.130;11.356;2023-09-07T11:21:33;7.45;;;6.07;;
54745;SDS011;40640;48.130;11.356;2023-09-07T11:25:39;8.07;;;7.13;;
54745;SDS011;40640;48.130;11.356;2023-09-07T11:29:49;9.50;;;8.25;;
54745;SDS011;40640;48.130;11.356;2023-09-07T11:37:59;12.05;;;10.88;;
54745;SDS011;40640;48.130;11.356;2023-09-07T11:42:03;11.02;;;10.07;;
54745;SDS011;40640;48.130;11.356;2023-09-07T11:46:06;11.80;;;11.00;;
54745;SDS011;40640;48.130;11.356;2023-09-07T11:50:13;12.43;;;11.45;;
54745;SDS011;40640;48.130;11.356;2023-09-07T11:54:16;9.80;;;8.90;;
54745;SDS011;40640;48.130;11.356;2023-09-07T11:58:20;8.45;;;7.63;;
54745;SDS011;40640;48.130;11.356;2023-09-07T12:02:23;8.85;;;8.05;;
54745;SDS011;40640;48.130;11.356;2023-09-07T12:06:26;7.20;;;6.70;;
54745;SDS011;40640;48.130;11.356;2023-09-07T12:10:29;10.50;;;8.77;;
54745;SDS011;40640;48.130;11.356;2023-09-07T12:14:33;9.32;;;5.90;;
54745;SDS011;40640;48.130;11.356;2023-09-07T12:18:36;7.47;;;5.45;;
54745;SDS011;40640;48.130;11.356;2023-09-07T12:22:39;6.88;;;6.20;;
54745;SDS011;40640;48.130;11.356;2023-09-07T12:26:42;5.40;;;4.90;;
54745;SDS011;40640;48.130;11.356;2023-09-07T12:30:46;6.97;;;5.00;;
54745;SDS011;40640;48.130;11.356;2023-09-07T12:34:50;7.50;;;4.88;;
54745;SDS011;40640;48.130;11.356;2023-09-07T12:38:55;9.02;;;4.40;;
54745;SDS011;40640;48.130;11.356;2023-09-07T12:43:02;7.43;;;4.57;;
54745;SDS011;40640;48.130;11.356;2023-09-07T12:47:07;4.53;;;4.13;;
54745;SDS011;40640;48.130;11.356;2023-09-07T12:51:10;6.72;;;4.30;;
54745;SDS011;40640;48.130;11.356;2023-09-07T12:55:12;5.28;;;3.80;;
54745;SDS011;40640;48.130;11.356;2023-09-07T12:59:15;6.35;;;3.78;;
54745;SDS011;40640;48.130;11.356;2023-09-07T13:07:23;6.00;;;4.00;;
54745;SDS011;40640;48.130;11.356;2023-09-07T13:11:26;8.90;;;3.90;;
54745;SDS011;40640;48.130;11.356;2023-09-07T13:15:29;9.52;;;3.80;;
54745;SDS011;40640;48.130;11.356;2023-09-07T13:19:33;4.72;;;3.30;;
54745;SDS011;40640;48.130;11.356;2023-09-07T13:23:36;5.85;;;3.75;;
54745;SDS011;40640;48.130;11.356;2023-09-07T13:27:39;7.80;;;3.80;;
54745;SDS011;40640;48.130;11.356;2023-09-07T13:31:42;5.13;;;3.70;;
54745;SDS011;40640;48.130;11.356;2023-09-07T13:35:46;4.07;;;3.33;;
54745;SDS011;40640;48.130;11.356;2023-09-07T13:39:49;4.32;;;3.60;;
54745;SDS011;40640;48.130;11.356;2023-09-07T13:43:52;3.90;;;3.55;;
54745;SDS011;40640;48.130;11.356;2023-09-07T13:47:55;4.60;;;3.88;;
54745;SDS011;40640;48.130;11.356;2023-09-07T13:52:00;4.25;;;3.45;;
54745;SDS011;40640;48.130;11.356;2023-09-07T14:00:06;5.57;;;3.67;;
54745;SDS011;40640;48.130;11.356;2023-09-07T14:04:09;4.27;;;3.00;;
54745;SDS011;40640;48.130;11.356;2023-09-07T14:08:13;5.53;;;3.00;;
54745;SDS011;40640;48.130;11.356;2023-09-07T14:12:16;6.45;;;3.40;;
54745;SDS011;40640;48.130;11.356;2023-09-07T14:16:19;7.90;;;3.88;;
54745;SDS011;40640;48.130;11.356;2023-09-07T14:20:23;7.93;;;3.63;;
54745;SDS011;40640;48.130;11.356;2023-09-07T14:24:27;5.80;;;3.63;;
54745;SDS011;40640;48.130;11.356;2023-09-07T14:28:30;10.77;;;4.07;;
54745;SDS011;40640;48.130;11.356;2023-09-07T14:32:33;5.05;;;3.28;;
54745;SDS011;40640;48.130;11.356;2023-09-07T14:36:36;4.18;;;3.25;;
54745;SDS011;40640;48.130;11.356;2023-09-07T14:40:40;3.95;;;3.00;;
54745;SDS011;40640;48.130;11.356;2023-09-07T14:44:44;10.77;;;3.30;;
54745;SDS011;40640;48.130;11.356;2023-09-07T14:48:48;6.70;;;3.28;;
54745;SDS011;40640;48.130;11.356;2023-09-07T14:52:51;6.80;;;3.58;;
54745;SDS011;40640;48.130;11.356;2023-09-07T14:56:55;9.80;;;3.67;;
54745;SDS011;40640;48.130;11.356;2023-09-07T15:00:58;6.03;;;3.83;;
54745;SDS011;40640;48.130;11.356;2023-09-07T15:05:01;6.78;;;3.70;;
54745;SDS011;40640;48.130;11.356;2023-09-07T15:09:05;7.35;;;3.50;;
54745;SDS011;40640;48.130;11.356;2023-09-07T15:13:09;6.53;;;3.55;;
54745;SDS011;40640;48.130;11.356;2023-09-07T15:17:12;5.85;;;3.85;;
54745;SDS011;40640;48.130;11.356;2023-09-07T15:21:16;6.47;;;3.55;;
54745;SDS011;40640;48.130;11.356;2023-09-07T15:25:19;10.02;;;4.10;;
54745;SDS011;40640;48.130;11.356;2023-09-07T15:29:23;7.47;;;3.63;;
54745;SDS011;40640;48.130;11.356;2023-09-07T15:33:26;4.43;;;3.53;;
54745;SDS011;40640;48.130;11.356;2023-09-07T15:37:29;5.93;;;3.70;;
54745;SDS011;40640;48.130;11.356;2023-09-07T15:41:32;8.80;;;3.78;;
54745;SDS011;40640;48.130;11.356;2023-09-07T15:45:37;5.50;;;3.80;;
54745;SDS011;40640;48.130;11.356;2023-09-07T15:49:40;5.18;;;3.90;;
54745;SDS011;40640;48.130;11.356;2023-09-07T15:53:47;7.07;;;3.35;;
54745;SDS011;40640;48.130;11.356;2023-09-07T15:57:50;5.53;;;3.88;;
54745;SDS011;40640;48.130;11.356;2023-09-07T16:01:54;9.75;;;3.50;;
54745;SDS011;40640;48.130;11.356;2023-09-07T16:05:57;5.72;;;3.58;;
54745;SDS011;40640;48.130;11.356;2023-09-07T16:10:00;5.22;;;3.92;;
54745;SDS011;40640;48.130;11.356;2023-09-07T16:14:03;4.85;;;3.25;;
54745;SDS011;40640;48.130;11.356;2023-09-07T16:18:07;5.90;;;3.72;;
54745;SDS011;40640;48.130;11.356;2023-09-07T16:22:11;8.13;;;3.50;;
54745;SDS011;40640;48.130;11.356;2023-09-07T16:26:13;9.30;;;3.53;;
54745;SDS011;40640;48.130;11.356;2023-09-07T16:30:16;4.15;;;3.42;;
54745;SDS011;40640;48.130;11.356;2023-09-07T16:34:21;7.38;;;4.00;;
54745;SDS011;40640;48.130;11.356;2023-09-07T16:38:24;8.77;;;4.03;;
54745;SDS011;40640;48.130;11.356;2023-09-07T16:42:26;5.63;;;3.83;;
54745;SDS011;40640;48.130;11.356;2023-09-07T16:46:29;9.75;;;4.30;;
54745;SDS011;40640;48.130;11.356;2023-09-07T16:50:33;8.30;;;3.70;;
54745;SDS011;40640;48.130;11.356;2023-09-07T16:54:36;10.95;;;4.15;;
54745;SDS011;40640;48.130;11.356;2023-09-07T16:58:41;10.80;;;4.40;;
54745;SDS011;40640;48.130;11.356;2023-09-07T17:03:04;5.72;;;3.88;;
54745;SDS011;40640;48.130;11.356;2023-09-07T17:07:10;6.50;;;3.95;;
54745;SDS011;40640;48.130;11.356;2023-09-07T17:11:12;7.10;;;3.97;;
54745;SDS011;40640;48.130;11.356;2023-09-07T17:15:15;5.40;;;3.45;;
54745;SDS011;40640;48.130;11.356;2023-09-07T17:19:18;6.72;;;3.90;;
54745;SDS011;40640;48.130;11.356;2023-09-07T17:23:22;8.90;;;3.83;;
54745;SDS011;40640;48.130;11.356;2023-09-07T17:27:26;7.50;;;4.13;;
54745;SDS011;40640;48.130;11.356;2023-09-07T17:31:29;10.48;;;3.83;;
54745;SDS011;40640;48.130;11.356;2023-09-07T17:35:34;6.55;;;4.55;;
54745;SDS011;40640;48.130;11.356;2023-09-07T17:39:39;5.80;;;3.92;;
54745;SDS011;40640;48.130;11.356;2023-09-07T17:43:44;10.40;;;3.75;;
54745;SDS011;40640;48.130;11.356;2023-09-07T17:47:47;6.72;;;3.95;;
54745;SDS011;40640;48.130;11.356;2023-09-07T17:51:50;8.88;;;4.28;;
54745;SDS011;40640;48.130;11.356;2023-09-07T17:55:56;10.10;;;4.20;;
54745;SDS011;40640;48.130;11.356;2023-09-07T17:59:59;5.57;;;4.05;;
54745;SDS011;40640;48.130;11.356;2023-09-07T18:04:04;6.10;;;4.18;;
54745;SDS011;40640;48.130;11.356;2023-09-07T18:08:07;14.48;;;5.00;;
54745;SDS011;40640;48.130;11.356;2023-09-07T18:12:11;7.60;;;4.32;;
54745;SDS011;40640;48.130;11.356;2023-09-07T18:16:15;19.02;;;6.20;;
54745;SDS011;40640;48.130;11.356;2023-09-07T18:20:18;14.10;;;5.13;;
54745;SDS011;40640;48.130;11.356;2023-09-07T18:24:21;10.85;;;5.18;;
54745;SDS011;40640;48.130;11.356;2023-09-07T18:28:25;8.77;;;5.55;;
54745;SDS011;40640;48.130;11.356;2023-09-07T18:32:28;10.13;;;5.70;;
54745;SDS011;40640;48.130;11.356;2023-09-07T18:36:31;10.55;;;5.78;;
54745;SDS011;40640;48.130;11.356;2023-09-07T18:40:34;9.18;;;4.80;;
54745;SDS011;40640;48.130;11.356;2023-09-07T18:44:38;7.90;;;4.82;;
54745;SDS011;40640;48.130;11.356;2023-09-07T18:48:41;8.30;;;4.57;;
54745;SDS011;40640;48.130;11.356;2023-09-07T18:52:44;9.63;;;4.80;;
54745;SDS011;40640;48.130;11.356;2023-09-07T18:56:47;11.82;;;5.32;;
54745;SDS011;40640;48.130;11.356;2023-09-07T19:00:51;10.40;;;4.85;;
54745;SDS011;40640;48.130;11.356;2023-09-07T19:04:54;15.48;;;5.38;;
54745;SDS011;40640;48.130;11.356;2023-09-07T19:08:58;10.07;;;4.82;;
54745;SDS011;40640;48.130;11.356;2023-09-07T19:13:01;8.55;;;5.38;;
54745;SDS011;40640;48.130;11.356;2023-09-07T19:17:05;10.35;;;5.65;;
54745;SDS011;40640;48.130;11.356;2023-09-07T19:21:08;8.68;;;5.63;;
54745;SDS011;40640;48.130;11.356;2023-09-07T19:25:24;11.68;;;6.03;;
54745;SDS011;40640;48.130;11.356;2023-09-07T19:29:27;12.00;;;6.50;;
54745;SDS011;40640;48.130;11.356;2023-09-07T19:33:31;10.95;;;5.75;;
54745;SDS011;40640;48.130;11.356;2023-09-07T19:37:35;15.13;;;6.43;;
54745;SDS011;40640;48.130;11.356;2023-09-07T19:41:38;10.93;;;6.72;;
54745;SDS011;40640;48.130;11.356;2023-09-07T19:45:43;10.95;;;6.95;;
54745;SDS011;40640;48.130;11.356;2023-09-07T19:49:48;13.50;;;6.40;;
54745;SDS011;40640;48.130;11.356;2023-09-07T19:53:51;14.27;;;6.30;;
54745;SDS011;40640;48.130;11.356;2023-09-07T19:57:54;18.88;;;7.03;;
54745;SDS011;40640;48.130;11.356;2023-09-07T20:01:57;11.15;;;6.35;;
54745;SDS011;40640;48.130;11.356;2023-09-07T20:06:02;10.00;;;6.32;;
54745;SDS011;40640;48.130;11.356;2023-09-07T20:10:06;11.23;;;7.03;;
54745;SDS011;40640;48.130;11.356;2023-09-07T20:14:10;11.60;;;6.78;;
54745;SDS011;40640;48.130;11.356;2023-09-07T20:18:13;11.15;;;6.60;;
54745;SDS011;40640;48.130;11.356;2023-09-07T20:22:17;10.75;;;7.00;;
54745;SDS011;40640;48.130;11.356;2023-09-07T20:26:21;11.73;;;6.22;;
54745;SDS011;40640;48.130;11.356;2023-09-07T20:30:24;13.23;;;6.82;;
54745;SDS011;40640;48.130;11.356;2023-09-07T20:34:27;9.93;;;6.47;;
54745;SDS011;40640;48.130;11.356;2023-09-07T20:38:32;11.43;;;6.55;;
54745;SDS011;40640;48.130;11.356;2023-09-07T20:42:35;12.73;;;7.28;;
54745;SDS011;40640;48.130;11.356;2023-09-07T20:46:38;12.95;;;7.10;;
54745;SDS011;40640;48.130;11.356;2023-09-07T20:50:41;12.10;;;6.65;;
54745;SDS011;40640;48.130;11.356;2023-09-07T20:54:45;9.38;;;6.60;;
54745;SDS011;40640;48.130;11.356;2023-09-07T20:58:48;10.75;;;7.13;;
54745;SDS011;40640;48.130;11.356;2023-09-07T21:02:51;15.80;;;8.05;;
54745;SDS011;40640;48.130;11.356;2023-09-07T21:06:54;13.48;;;6.93;;
54745;SDS011;40640;48.130;11.356;2023-09-07T21:10:59;15.93;;;8.40;;
54745;SDS011;40640;48.130;11.356;2023-09-07T21:15:02;11.68;;;7.53;;
54745;SDS011;40640;48.130;11.356;2023-09-07T21:19:06;12.20;;;7.47;;
54745;SDS011;40640;48.130;11.356;2023-09-07T21:23:12;11.10;;;7.95;;
54745;SDS011;40640;48.130;11.356;2023-09-07T21:27:16;11.38;;;7.63;;
54745;SDS011;40640;48.130;11.356;2023-09-07T21:31:19;16.17;;;7.78;;
54745;SDS011;40640;48.130;11.356;2023-09-07T21:35:23;13.55;;;7.70;;
54745;SDS011;40640;48.130;11.356;2023-09-07T21:39:25;12.18;;;7.63;;
54745;SDS011;40640;48.130;11.356;2023-09-07T21:43:30;14.25;;;7.45;;
54745;SDS011;40640;48.130;11.356;2023-09-07T21:47:33;14.43;;;7.75;;
54745;SDS011;40640;48.130;11.356;2023-09-07T21:51:36;19.98;;;9.45;;
54745;SDS011;40640;48.130;11.356;2023-09-07T21:55:39;11.55;;;7.45;;
54745;SDS011;40640;48.130;11.356;2023-09-07T21:59:43;9.73;;;6.60;;
54745;SDS011;40640;48.130;11.356;2023-09-07T22:03:46;10.10;;;6.95;;
54745;SDS011;40640;48.130;11.356;2023-09-07T22:07:49;8.85;;;6.45;;
54745;SDS011;40640;48.130;11.356;2023-09-07T22:11:52;9.50;;;6.40;;
54745;SDS011;40640;48.130;11.356;2023-09-07T22:15:57;11.07;;;6.22;;
54745;SDS011;40640;48.130;11.356;2023-09-07T22:20:00;12.90;;;6.78;;
54745;SDS011;40640;48.130;11.356;2023-09-07T22:24:05;19.75;;;7.15;;
54745;SDS011;40640;48.130;11.356;2023-09-07T22:28:08;11.43;;;7.88;;
54745;SDS011;40640;48.130;11.356;2023-09-07T22:32:14;9.80;;;6.82;;
54745;SDS011;40640;48.130;11.356;2023-09-07T22:36:17;10.95;;;6.97;;
54745;SDS011;40640;48.130;11.356;2023-09-07T22:40:20;10.82;;;6.20;;
54745;SDS011;40640;48.130;11.356;2023-09-07T22:44:23;11.25;;;6.43;;
54745;SDS011;40640;48.130;11.356;2023-09-07T22:48:28;10.40;;;6.78;;
54745;SDS011;40640;48.130;11.356;2023-09-07T22:52:30;13.25;;;6.30;;
54745;SDS011;40640;48.130;11.356;2023-09-07T22:56:34;10.23;;;6.65;;
54745;SDS011;40640;48.130;11.356;2023-09-07T23:00:37;15.85;;;6.80;;
54745;SDS011;40640;48.130;11.356;2023-09-07T23:04:44;9.00;;;6.70;;
54745;SDS011;40640;48.130;11.356;2023-09-07T23:08:47;10.98;;;6.80;;
54745;SDS011;40640;48.130;11.356;2023-09-07T23:12:52;10.05;;;7.35;;
54745;SDS011;40640;48.130;11.356;2023-09-07T23:16:55;12.52;;;6.75;;
54745;SDS011;40640;48.130;11.356;2023-09-07T23:20:59;12.52;;;7.20;;
54745;SDS011;40640;48.130;11.356;2023-09-07T23:25:02;8.32;;;6.70;;
54745;SDS011;40640;48.130;11.356;2023-09-07T23:29:05;12.20;;;6.80;;
54745;SDS011;40640;48.130;11.356;2023-09-07T23:33:08;10.23;;;6.32;;
54745;SDS011;40640;48.130;11.356;2023-09-07T23:37:13;13.68;;;7.25;;
54745;SDS011;40640;48.130;11.356;2023-09-07T23:41:16;10.30;;;6.55;;
54745;SDS011;40640;48.130;11.356;2023-09-07T23:45:18;10.73;;;6.72;;
54745;SDS011;40640;48.130;11.356;2023-09-07T23:49:22;12.10;;;6.40;;
54745;SDS011;40640;48.130;11.356;2023-09-07T23:53:26;10.40;;;6.35;;
54745;SDS011;40640;48.130;11.356;2023-09-07T23:57:29;12.40;;;7.07;;
